Time;durP1;ratioP1;P1;durP2;ratioP2;P2;SDS_P1;SDS_P2;PMS_P1;PMS_P2;Temp;Humidity;BMP_temperature;BMP_pressure;BME280_temperature;BME280_humidity;BME280_pressure;Samples;Min_cycle;Max_cycle;Signal;HPM_P1;HPM_P2
2023/01/02 00:01:08;;;;;;;;;3.67;3.67;;;;;15.79;100.00;100988.56;5082135;27;45585;-81
2023/01/02 00:03:33;;;;;;;;;6.33;4.67;;;;;15.72;100.00;100992.19;5100520;27;45219;-80
2023/01/02 00:06:04;;;;;;;;;3.50;3.50;;;;;15.72;100.00;100997.66;5104746;27;45518;-79
2023/01/02 00:08:29;;;;;;;;;8.00;5.00;;;;;15.67;100.00;100994.59;5085874;27;45423;-79
2023/01/02 00:10:54;;;;;;;;;5.33;4.00;;;;;15.59;100.00;100992.75;5086202;27;47955;-80
2023/01/02 00:13:20;;;;;;;;;4.33;3.33;;;;;15.47;100.00;101016.88;5103520;27;45253;-79
2023/01/02 00:15:45;;;;;;;;;4.33;4.33;;;;;15.48;100.00;101017.75;5104469;27;45773;-79
2023/01/02 00:18:10;;;;;;;;;5.00;4.00;;;;;15.55;100.00;101016.03;5103698;27;45468;-79
2023/01/02 00:20:36;;;;;;;;;2.00;2.00;;;;;15.44;100.00;101022.69;5103988;27;45553;-79
2023/01/02 00:23:02;;;;;;;;;4.67;3.67;;;;;15.47;100.00;101026.97;5103576;27;45431;-79
2023/01/02 00:25:27;;;;;;;;;5.33;5.33;;;;;15.44;100.00;101027.31;5105087;27;45226;-80
2023/01/02 00:27:54;;;;;;;;;5.33;5.00;;;;;15.36;100.00;101033.66;5104115;27;47168;-79
2023/01/02 00:30:19;;;;;;;;;9.00;6.00;;;;;15.40;100.00;101028.69;5104458;27;46458;-81
2023/01/02 00:32:45;;;;;;;;;3.00;3.00;;;;;15.39;100.00;101036.06;5103257;27;45333;-80
2023/01/02 00:35:10;;;;;;;;;2.00;2.00;;;;;15.30;100.00;101028.00;5086469;27;45592;-79
2023/01/02 00:37:36;;;;;;;;;5.33;4.00;;;;;15.24;100.00;101037.78;5086030;27;45374;-79
2023/01/02 00:40:02;;;;;;;;;3.00;3.00;;;;;15.18;100.00;101035.72;5095790;27;46320;-79
2023/01/02 00:42:27;;;;;;;;;6.00;4.00;;;;;15.17;100.00;101031.28;5084995;27;45521;-80
2023/01/02 00:44:53;;;;;;;;;8.67;4.67;;;;;15.15;100.00;101031.44;5073854;27;45595;-80
2023/01/02 00:47:18;;;;;;;;;5.33;4.00;;;;;15.07;100.00;101036.06;5100773;27;45242;-79
2023/01/02 00:49:43;;;;;;;;;5.00;3.00;;;;;15.04;100.00;101039.16;5078416;27;46792;-78
2023/01/02 00:52:09;;;;;;;;;3.00;3.00;;;;;14.93;100.00;101034.84;5081905;27;45447;-80
2023/01/02 00:54:34;;;;;;;;;3.00;3.00;;;;;15.00;100.00;101044.09;5103494;27;45485;-80
2023/01/02 00:56:59;;;;;;;;;3.00;1.00;;;;;14.98;100.00;101042.53;5104004;27;45530;-79
2023/01/02 00:59:25;;;;;;;;;3.00;2.00;;;;;14.96;100.00;101041.88;5102587;27;45269;-79
2023/01/02 01:01:50;;;;;;;;;4.33;3.00;;;;;14.93;100.00;101036.72;5090808;27;46480;-78
2023/01/02 01:04:15;;;;;;;;;4.00;4.00;;;;;14.89;100.00;101021.69;5104685;27;45329;-80
2023/01/02 01:06:41;;;;;;;;;3.33;2.33;;;;;14.84;100.00;101037.72;5090409;27;45202;-80
2023/01/02 01:09:06;;;;;;;;;3.00;2.00;;;;;14.83;100.00;101041.53;5080735;27;47211;-79
2023/01/02 01:11:31;;;;;;;;;2.33;2.33;;;;;14.82;100.00;101039.81;5089577;27;45253;-80
2023/01/02 01:13:57;;;;;;;;;2.00;2.00;;;;;14.80;100.00;101046.28;5097587;27;45407;-80
2023/01/02 01:16:22;;;;;;;;;3.00;3.00;;;;;14.81;100.00;101044.41;5085899;27;45351;-80
2023/01/02 01:18:48;;;;;;;;;3.33;3.33;;;;;14.76;100.00;101042.16;5103096;27;45474;-78
2023/01/02 01:21:19;;;;;;;;;3.00;2.00;;;;;14.77;100.00;101043.03;5104259;27;45271;-80
2023/01/02 01:23:52;;;;;;;;;2.33;2.00;;;;;14.67;100.00;101045.06;5085099;27;45484;-79
2023/01/02 01:26:19;;;;;;;;;5.33;2.33;;;;;14.68;100.00;101061.28;5085831;27;46544;-79
2023/01/02 01:28:45;;;;;;;;;4.67;3.00;;;;;14.70;100.00;101066.59;5103160;27;45403;-79
2023/01/02 01:31:12;;;;;;;;;2.33;2.33;;;;;14.72;100.00;101070.03;5087113;27;45585;-80
2023/01/02 01:33:39;;;;;;;;;3.67;2.33;;;;;14.64;100.00;101065.41;5081015;27;45337;-79
2023/01/02 01:36:11;;;;;;;;;2.00;2.00;;;;;14.65;100.00;101061.66;5103953;27;45564;-79
2023/01/02 01:38:36;;;;;;;;;6.00;3.67;;;;;14.59;100.00;101064.19;5103252;27;45409;-80
2023/01/02 01:41:02;;;;;;;;;1.00;1.00;;;;;14.50;100.00;101060.56;5084579;27;45741;-80
2023/01/02 01:43:37;;;;;;;;;1.67;1.67;;;;;14.53;100.00;101064.88;5103301;27;45220;-80
2023/01/02 01:46:08;;;;;;;;;5.00;2.00;;;;;14.52;100.00;101052.22;5103358;27;45547;-80
2023/01/02 01:48:34;;;;;;;;;3.67;2.00;;;;;14.50;100.00;101049.63;5080947;28;47331;-80
2023/01/02 01:50:59;;;;;;;;;3.00;3.00;;;;;14.51;100.00;101059.56;5097111;27;45349;-79
2023/01/02 01:53:25;;;;;;;;;2.33;2.33;;;;;14.43;100.00;101067.72;5080018;27;45287;-79
2023/01/02 01:55:55;;;;;;;;;2.00;2.00;;;;;14.44;100.00;101063.13;5104248;27;45224;-80
2023/01/02 01:58:25;;;;;;;;;3.00;3.00;;;;;14.52;100.00;101077.69;5103367;27;46316;-79
2023/01/02 02:00:50;;;;;;;;;6.00;3.00;;;;;14.44;100.00;101066.72;5072351;27;45203;-80
2023/01/02 02:03:20;;;;;;;;;4.00;3.00;;;;;14.50;100.00;101076.13;5096603;27;45362;-80
2023/01/02 02:05:47;;;;;;;;;3.00;2.00;;;;;14.49;100.00;101080.72;5082463;27;45545;-80
2023/01/02 02:08:20;;;;;;;;;2.67;2.67;;;;;14.45;100.00;101092.19;5081017;27;46729;-80
2023/01/02 02:10:46;;;;;;;;;2.00;2.00;;;;;14.50;100.00;101101.59;5084517;27;45411;-80
2023/01/02 02:13:13;;;;;;;;;2.67;2.67;;;;;14.37;100.00;101098.44;5101743;27;45310;-80
2023/01/02 02:16:06;;;;;;;;;5.00;2.33;;;;;14.39;100.00;101108.19;5094568;27;45592;-80
2023/01/02 02:19:16;;;;;;;;;1.67;1.00;;;;;14.32;100.00;101118.03;5083232;27;47265;-80
2023/01/02 02:21:54;;;;;;;;;2.33;1.33;;;;;14.40;100.00;101120.84;5085164;27;45514;-80
2023/01/02 02:24:32;;;;;;;;;2.00;2.00;;;;;14.39;100.00;101121.03;5106227;27;45398;-80
2023/01/02 02:27:00;;;;;;;;;2.33;1.00;;;;;14.34;100.00;101129.69;5094775;27;45460;-80
2023/01/02 02:30:06;;;;;;;;;1.67;1.67;;;;;14.31;100.00;101132.75;5083742;27;47008;-80
2023/01/02 02:32:44;;;;;;;;;1.00;1.00;;;;;14.36;100.00;101132.25;5105274;27;45325;-80
2023/01/02 02:35:30;;;;;;;;;1.33;1.33;;;;;14.32;100.00;101128.97;5098498;27;45246;-80
2023/01/02 02:38:06;;;;;;;;;1.00;1.00;;;;;14.36;100.00;101134.97;5087929;27;45367;-80
2023/01/02 02:40:50;;;;;;;;;2.67;2.00;;;;;14.36;100.00;101140.44;5074730;28;47442;-80
2023/01/02 02:43:36;;;;;;;;;3.00;2.00;;;;;14.28;100.00;101126.75;5099710;27;45455;-79
2023/01/02 02:46:20;;;;;;;;;1.00;1.00;;;;;14.23;100.00;101135.44;5106079;27;45417;-79
2023/01/02 02:49:03;;;;;;;;;1.67;1.67;;;;;14.19;100.00;101120.38;5105107;27;45738;-80
2023/01/02 02:51:45;;;;;;;;;3.00;3.00;;;;;14.16;100.00;101139.84;5088074;27;47248;-80
2023/01/02 02:54:15;;;;;;;;;2.00;2.00;;;;;14.14;100.00;101124.63;5101937;27;45235;-80
2023/01/02 02:56:42;;;;;;;;;2.33;2.33;;;;;14.06;100.00;101117.22;5104487;27;45499;-80
2023/01/02 02:59:09;;;;;;;;;1.00;1.00;;;;;14.06;100.00;101119.97;5082928;27;45581;-81
2023/01/02 03:01:35;;;;;;;;;2.00;1.00;;;;;14.04;100.00;101128.31;5093422;27;45455;-81
2023/01/02 03:04:00;;;;;;;;;1.00;1.00;;;;;14.07;100.00;101120.81;5101723;27;45392;-81
2023/01/02 03:07:16;;;;;;;;;3.00;1.00;;;;;14.02;100.00;101138.56;5093556;27;45262;-81
2023/01/02 03:10:08;;;;;;;;;2.67;1.67;;;;;14.03;100.00;101139.41;5079839;27;45243;-81
2023/01/02 03:13:11;;;;;;;;;2.00;1.00;;;;;13.96;100.00;101135.59;5104735;27;45440;-81
2023/01/02 03:15:46;;;;;;;;;1.67;1.67;;;;;13.90;100.00;101142.56;5093814;27;45287;-81
2023/01/02 03:18:26;;;;;;;;;1.00;1.00;;;;;13.90;100.00;101152.63;5097741;27;45317;-81
2023/01/02 03:21:28;;;;;;;;;1.00;1.00;;;;;13.91;100.00;101140.69;5095024;27;45459;-81
2023/01/02 03:23:56;;;;;;;;;0.00;0.00;;;;;13.89;100.00;101143.59;5078333;27;47835;-81
2023/01/02 03:26:26;;;;;;;;;2.00;0.00;;;;;13.75;100.00;101130.50;5090824;27;45368;-81
2023/01/02 03:28:57;;;;;;;;;0.00;0.00;;;;;13.82;100.00;101128.84;5093594;27;45459;-80
2023/01/02 03:31:26;;;;;;;;;0.00;0.00;;;;;13.72;100.00;101125.38;5071293;28;45425;-80
2023/01/02 03:34:00;;;;;;;;;0.00;0.00;;;;;13.68;100.00;101132.16;5102706;27;45454;-80
2023/01/02 03:36:30;;;;;;;;;0.00;0.00;;;;;13.68;100.00;101134.91;5087532;27;45455;-80
2023/01/02 03:39:05;;;;;;;;;0.00;0.00;;;;;13.70;100.00;101138.34;5077111;27;45456;-80
2023/01/02 03:41:37;;;;;;;;;0.00;0.00;;;;;13.61;100.00;101140.13;5088012;27;45456;-80
2023/01/02 03:44:06;;;;;;;;;0.00;0.00;;;;;13.63;100.00;101142.72;5077917;27;48253;-80
2023/01/02 03:46:37;;;;;;;;;0.00;0.00;;;;;13.61;100.00;101161.13;5086463;27;45265;-80
2023/01/02 03:49:13;;;;;;;;;1.00;0.00;;;;;13.62;100.00;101173.75;5092377;27;45532;-80
2023/01/02 03:51:40;;;;;;;;;2.00;0.00;;;;;13.58;100.00;101172.38;5101313;27;45455;-80
2023/01/02 03:54:06;;;;;;;;;0.00;0.00;;;;;13.57;100.00;101181.56;5099120;27;47191;-80
2023/01/02 03:56:58;;;;;;;;;0.00;0.00;;;;;13.56;100.00;101182.59;5103342;27;45419;-80
2023/01/02 04:00:00;;;;;;;;;1.00;0.00;;;;;13.54;100.00;101190.94;5076751;27;45378;-81
2023/01/02 04:03:05;;;;;;;;;0.00;0.00;;;;;13.56;100.00;101197.09;5105109;27;45412;-81
2023/01/02 04:05:59;;;;;;;;;0.00;0.00;;;;;13.56;100.00;101201.69;5086571;27;47406;-80
2023/01/02 04:08:31;;;;;;;;;0.00;0.00;;;;;13.49;100.00;101184.22;5078459;27;45434;-80
2023/01/02 04:11:00;;;;;;;;;0.00;0.00;;;;;13.46;100.00;101196.31;5095395;27;45305;-81
2023/01/02 04:13:34;;;;;;;;;0.00;0.00;;;;;13.39;100.00;101188.91;5102227;27;45321;-81
2023/01/02 04:16:02;;;;;;;;;0.00;0.00;;;;;13.42;100.00;101196.78;5093066;27;45326;-81
2023/01/02 04:18:35;;;;;;;;;1.00;1.00;;;;;13.35;100.00;101191.09;5094452;27;45339;-81
2023/01/02 04:21:12;;;;;;;;;0.00;0.00;;;;;13.37;100.00;101193.69;5090659;27;45382;-81
2023/01/02 04:23:46;;;;;;;;;0.00;0.00;;;;;13.36;100.00;101194.69;5086545;27;45699;-81
2023/01/02 04:26:20;;;;;;;;;1.00;1.00;;;;;13.34;100.00;101197.56;5080634;27;47510;-81
2023/01/02 04:28:45;;;;;;;;;0.00;0.00;;;;;13.21;100.00;101197.09;5084704;27;46793;-81
2023/01/02 04:31:19;;;;;;;;;0.00;0.00;;;;;13.28;100.00;101205.50;5089613;27;45314;-81
2023/01/02 04:33:50;;;;;;;;;0.00;0.00;;;;;13.27;100.00;101188.28;5100213;27;45454;-81
2023/01/02 04:36:16;;;;;;;;;0.67;0.00;;;;;13.28;100.00;101203.66;5085564;27;45668;-81
2023/01/02 04:38:43;;;;;;;;;0.00;0.00;;;;;13.23;100.00;101204.09;5097980;27;45230;-81
2023/01/02 04:41:09;;;;;;;;;1.00;0.00;;;;;13.21;100.00;101214.31;5067721;28;45284;-80
2023/01/02 04:43:34;;;;;;;;;0.00;0.00;;;;;13.27;100.00;101220.16;5100104;27;45405;-80
2023/01/02 04:46:00;;;;;;;;;1.00;0.00;;;;;13.29;100.00;101227.19;5098539;27;45436;-81
2023/01/02 04:48:25;;;;;;;;;0.00;0.00;;;;;13.19;100.00;101226.38;5097224;27;45330;-80
2023/01/02 04:50:53;;;;;;;;;0.00;0.00;;;;;13.19;100.00;101232.72;5086309;27;45475;-80
2023/01/02 04:53:19;;;;;;;;;0.00;0.00;;;;;13.14;100.00;101237.78;5103169;27;45342;-80
2023/01/02 04:55:44;;;;;;;;;0.00;0.00;;;;;13.11;100.00;101243.50;5074781;27;48102;-82
2023/01/02 04:58:10;;;;;;;;;0.00;0.00;;;;;13.19;100.00;101245.50;5087793;27;45323;-81
2023/01/02 05:00:35;;;;;;;;;0.00;0.00;;;;;13.11;100.00;101246.22;5090017;27;45282;-81
2023/01/02 05:03:02;;;;;;;;;0.00;0.00;;;;;13.11;100.00;101256.28;5106967;27;45365;-81
2023/01/02 05:05:27;;;;;;;;;0.00;0.00;;;;;13.07;100.00;101253.00;5099632;27;47668;-81
2023/01/02 05:07:53;;;;;;;;;1.00;0.00;;;;;13.10;100.00;101251.81;5079101;27;45298;-80
2023/01/02 05:10:18;;;;;;;;;0.00;0.00;;;;;13.06;100.00;101258.59;5100606;27;45298;-81
2023/01/02 05:12:44;;;;;;;;;1.00;0.00;;;;;13.04;100.00;101264.22;5082409;27;45450;-81
2023/01/02 05:15:10;;;;;;;;;0.00;0.00;;;;;13.08;100.00;101267.47;5087034;27;46981;-81
2023/01/02 05:17:37;;;;;;;;;0.00;0.00;;;;;13.07;100.00;101282.16;5105357;27;45427;-80
2023/01/02 05:20:06;;;;;;;;;0.00;0.00;;;;;13.05;100.00;101285.03;5103146;27;45415;-81
2023/01/02 05:25:15;;;;;;;;;0.00;0.00;;;;;13.02;100.00;101301.69;5105011;27;45384;-81
2023/01/02 05:27:41;;;;;;;;;0.00;0.00;;;;;12.98;100.00;101293.97;5083252;27;45291;-81
2023/01/02 05:30:07;;;;;;;;;0.00;0.00;;;;;13.04;100.00;101310.59;5077326;27;45490;-81
2023/01/02 05:32:33;;;;;;;;;0.33;0.00;;;;;12.98;100.00;101305.72;5083966;27;45644;-81
2023/01/02 05:34:58;;;;;;;;;0.00;0.00;;;;;12.91;100.00;101331.03;5086349;27;47446;-81
2023/01/02 05:37:23;;;;;;;;;0.00;0.00;;;;;12.96;100.00;101324.13;5095478;27;45385;-80
2023/01/02 05:39:49;;;;;;;;;0.00;0.00;;;;;13.03;100.00;101336.13;5094755;27;45210;-81
2023/01/02 05:42:14;;;;;;;;;0.00;0.00;;;;;13.05;100.00;101333.25;5089616;27;45420;-80
2023/01/02 05:44:39;;;;;;;;;0.00;0.00;;;;;12.98;100.00;101327.56;5097132;27;45464;-81
2023/01/02 05:47:05;;;;;;;;;0.00;0.00;;;;;12.94;100.00;101342.47;5087758;27;45425;-81
2023/01/02 05:49:30;;;;;;;;;1.00;0.00;;;;;12.93;100.00;101348.94;5103817;27;45248;-81
2023/01/02 05:51:55;;;;;;;;;0.00;0.00;;;;;12.94;100.00;101347.94;5086173;27;45371;-81
2023/01/02 05:54:21;;;;;;;;;0.00;0.00;;;;;12.98;100.00;101353.97;5100306;27;46866;-82
2023/01/02 05:56:46;;;;;;;;;0.00;0.00;;;;;13.02;100.00;101352.66;5086441;27;45274;-81
2023/01/02 05:59:15;;;;;;;;;0.00;0.00;;;;;13.02;100.00;101352.66;5100345;27;45312;-80
2023/01/02 06:01:40;;;;;;;;;0.00;0.00;;;;;13.03;100.00;101351.66;5073763;27;45445;-82
2023/01/02 06:04:06;;;;;;;;;0.00;0.00;;;;;13.05;100.00;101350.50;5081836;27;46934;-82
2023/01/02 06:06:34;;;;;;;;;0.00;0.00;;;;;13.05;100.00;101345.03;5105749;27;45199;-80
2023/01/02 06:09:01;;;;;;;;;0.00;0.00;;;;;12.98;100.00;101349.38;5086755;27;45403;-80
2023/01/02 06:11:27;;;;;;;;;0.67;0.67;;;;;12.98;100.00;101353.97;5093072;27;45306;-80
2023/01/02 06:13:53;;;;;;;;;0.00;0.00;;;;;13.02;100.00;101367.16;5086958;27;47045;-81
2023/01/02 06:16:19;;;;;;;;;0.00;0.00;;;;;13.01;100.00;101368.16;5093004;27;45384;-80
2023/01/02 06:18:45;;;;;;;;;0.00;0.00;;;;;13.03;100.00;101371.59;5097445;27;45660;-84
2023/01/02 06:21:13;;;;;;;;;2.67;1.00;;;;;13.03;100.00;101374.31;5092881;27;45412;-81
2023/01/02 06:23:39;;;;;;;;;0.33;0.00;;;;;12.99;100.00;101375.66;5084296;27;48630;-81
2023/01/02 06:26:08;;;;;;;;;0.00;0.00;;;;;12.93;100.00;101368.03;5091898;27;44793;-84
2023/01/02 06:28:33;;;;;;;;;0.00;0.00;;;;;12.96;100.00;101375.94;5099967;27;45486;-83
2023/01/02 06:31:04;;;;;;;;;0.00;0.00;;;;;13.03;100.00;101379.78;5091210;27;45327;-84
2023/01/02 06:33:30;;;;;;;;;0.00;0.00;;;;;13.03;100.00;101379.78;5079066;27;47425;-83
2023/01/02 06:35:57;;;;;;;;;0.67;0.00;;;;;13.02;100.00;101378.06;5090679;27;45356;-81
2023/01/02 06:38:23;;;;;;;;;0.00;0.00;;;;;12.94;100.00;101388.84;5098018;27;45758;-82
2023/01/02 06:40:53;;;;;;;;;1.00;0.00;;;;;12.80;100.00;101389.31;5076472;27;45421;-84
2023/01/02 06:43:18;;;;;;;;;1.33;0.00;;;;;12.83;100.00;101394.50;5084628;27;46845;-83
2023/01/02 06:45:44;;;;;;;;;0.00;0.00;;;;;12.89;100.00;101396.63;5102211;27;45157;-84
2023/01/02 06:48:09;;;;;;;;;0.00;0.00;;;;;12.92;100.00;101404.53;5080097;27;45352;-81
2023/01/02 06:50:35;;;;;;;;;1.00;1.00;;;;;12.82;100.00;101398.22;5087313;27;45254;-82
2023/01/02 06:53:00;;;;;;;;;0.00;0.00;;;;;12.77;100.00;101411.44;5085611;27;46813;-82
2023/01/02 06:55:26;;;;;;;;;0.00;0.00;;;;;12.83;100.00;101405.41;5105854;27;45261;-82
2023/01/02 06:57:51;;;;;;;;;0.00;0.00;;;;;12.80;100.00;101413.88;5106788;27;45409;-80
2023/01/02 07:00:17;;;;;;;;;1.00;1.00;;;;;12.82;100.00;101414.59;5098652;27;45310;-83
2023/01/02 07:02:42;;;;;;;;;1.00;1.00;;;;;12.79;100.00;101404.81;5074269;27;48269;-84
2023/01/02 07:05:09;;;;;;;;;0.00;0.00;;;;;12.84;100.00;101410.72;5078272;27;45372;-82
2023/01/02 07:07:35;;;;;;;;;1.00;1.00;;;;;12.86;100.00;101413.28;5093888;27;45321;-83
2023/01/02 07:10:00;;;;;;;;;0.00;0.00;;;;;12.80;100.00;101416.59;5101902;27;45227;-83
2023/01/02 07:12:26;;;;;;;;;1.67;0.00;;;;;12.77;100.00;101419.63;5107384;27;45639;-80
2023/01/02 07:14:51;;;;;;;;;0.00;0.00;;;;;12.75;100.00;101417.03;5104960;27;45246;-81
2023/01/02 07:17:16;;;;;;;;;1.00;1.00;;;;;12.74;100.00;101419.91;5077639;27;45292;-81
2023/01/02 07:19:42;;;;;;;;;0.00;0.00;;;;;12.75;100.00;101413.44;5086050;27;45393;-81
2023/01/02 07:22:07;;;;;;;;;0.67;0.67;;;;;12.73;100.00;101413.59;5068593;28;47026;-82
2023/01/02 07:24:32;;;;;;;;;0.00;0.00;;;;;12.74;100.00;101419.91;5075212;27;45446;-82
2023/01/02 07:26:58;;;;;;;;;0.00;0.00;;;;;12.72;100.00;101424.63;5071927;28;45234;-82
2023/01/02 07:29:23;;;;;;;;;0.33;0.33;;;;;12.73;100.00;101429.09;5074564;28;45379;-82
2023/01/02 07:31:49;;;;;;;;;0.00;0.00;;;;;12.76;100.00;101426.09;5068439;28;45417;-84
2023/01/02 07:34:14;;;;;;;;;0.00;0.00;;;;;12.75;100.00;101419.75;5069699;28;45300;-83
2023/01/02 07:36:39;;;;;;;;;0.00;0.00;;;;;12.70;100.00;101411.19;5068616;28;45160;-83
2023/01/02 07:39:05;;;;;;;;;0.67;0.00;;;;;12.66;100.00;101425.22;5082898;28;45477;-82
2023/01/02 07:41:30;;;;;;;;;0.00;0.00;;;;;12.51;100.00;101405.72;5068130;28;45372;-83
2023/01/02 07:43:55;;;;;;;;;0.00;0.00;;;;;12.57;100.00;101420.63;5082841;28;45909;-83
2023/01/02 07:46:22;;;;;;;;;0.00;0.00;;;;;12.54;100.00;101423.66;5083729;28;45676;-83
2023/01/02 07:48:47;;;;;;;;;3.00;0.00;;;;;12.58;100.00;101430.53;5083475;28;45403;-83
2023/01/02 07:51:13;;;;;;;;;1.33;0.00;;;;;12.52;100.00;101445.63;5086832;27;46194;-84
2023/01/02 07:53:40;;;;;;;;;0.00;0.00;;;;;12.47;100.00;101443.34;5085395;28;45487;-83
2023/01/02 07:56:06;;;;;;;;;0.00;0.00;;;;;12.49;100.00;101459.56;5086219;27;45412;-83
2023/01/02 07:58:32;;;;;;;;;0.00;0.00;;;;;12.50;100.00;101461.25;5084185;28;45555;-83
2023/01/02 08:00:57;;;;;;;;;0.00;0.00;;;;;12.54;100.00;101470.88;5085552;27;45258;-83
2023/01/02 08:03:23;;;;;;;;;0.00;0.00;;;;;12.46;100.00;101476.19;5088629;27;45411;-82
2023/01/02 08:05:49;;;;;;;;;0.00;0.00;;;;;12.49;100.00;101481.34;5084807;28;45405;-81
2023/01/02 08:08:15;;;;;;;;;1.00;0.00;;;;;12.48;100.00;101466.00;5085401;28;45588;-81
2023/01/02 08:10:40;;;;;;;;;0.00;0.00;;;;;12.54;100.00;101481.78;5085119;27;45627;-82
2023/01/02 08:13:06;;;;;;;;;0.00;0.00;;;;;12.61;100.00;101498.41;5083800;27;45377;-83
2023/01/02 08:15:32;;;;;;;;;0.00;0.00;;;;;12.62;100.00;101517.38;5084002;28;45443;-80
2023/01/02 08:17:57;;;;;;;;;5.00;3.00;;;;;12.54;100.00;101509.03;5081453;28;45475;-80
2023/01/02 08:20:25;;;;;;;;;0.00;0.00;;;;;12.55;100.00;101508.03;5086506;27;46671;-81
2023/01/02 08:22:50;;;;;;;;;0.00;0.00;;;;;12.58;100.00;101512.31;5088873;27;45661;-79
2023/01/02 08:25:17;;;;;;;;;1.00;1.00;;;;;12.55;100.00;101516.22;5100282;27;45412;-79
2023/01/02 08:27:42;;;;;;;;;0.00;0.00;;;;;12.55;100.00;101526.25;5081645;27;45618;-79
2023/01/02 08:30:08;;;;;;;;;0.00;0.00;;;;;12.60;100.00;101522.09;5086252;27;47167;-79
2023/01/02 08:32:37;;;;;;;;;0.00;0.00;;;;;12.63;100.00;101534.59;5103907;27;45170;-79
2023/01/02 08:35:04;;;;;;;;;0.00;0.00;;;;;12.54;100.00;101529.97;5105065;27;45417;-79
2023/01/02 08:37:30;;;;;;;;;0.00;0.00;;;;;12.51;100.00;101536.56;5077415;27;45438;-79
2023/01/02 08:39:55;;;;;;;;;0.00;0.00;;;;;12.62;100.00;101535.59;5084129;27;45795;-79
2023/01/02 08:42:20;;;;;;;;;1.00;1.00;;;;;12.64;100.00;101541.75;5093964;27;45433;-78
2023/01/02 08:44:46;;;;;;;;;0.00;0.00;;;;;12.58;100.00;101542.31;5104323;27;45289;-81
2023/01/02 08:47:11;;;;;;;;;0.00;0.00;;;;;12.62;100.00;101551.94;5084095;27;45331;-80
2023/01/02 08:49:36;;;;;;;;;0.00;0.00;;;;;12.52;100.00;101551.06;5085213;27;47661;-81
2023/01/02 08:52:02;;;;;;;;;0.00;0.00;;;;;12.51;100.00;101569.28;5103998;27;45432;-80
2023/01/02 08:54:27;;;;;;;;;1.00;1.00;;;;;12.57;100.00;101581.47;5102029;27;45262;-80
2023/01/02 08:56:52;;;;;;;;;0.00;0.00;;;;;12.37;100.00;101584.16;5104157;27;45322;-80
2023/01/02 08:59:18;;;;;;;;;0.00;0.00;;;;;12.57;100.00;101611.44;5104654;27;45421;-81
2023/01/02 09:01:43;;;;;;;;;0.33;0.33;;;;;12.57;100.00;101622.34;5104463;27;45251;-80
2023/01/02 09:04:09;;;;;;;;;0.00;0.00;;;;;12.51;100.00;101636.56;5104658;27;45331;-79
2023/01/02 09:06:35;;;;;;;;;0.00;0.00;;;;;12.43;100.00;101627.19;5097215;27;45528;-80
2023/01/02 09:09:02;;;;;;;;;0.00;0.00;;;;;12.53;100.00;101648.19;5104891;27;46532;-79
2023/01/02 09:11:36;;;;;;;;;0.67;0.00;;;;;12.41;100.00;101645.59;5103704;27;45329;-80
2023/01/02 09:14:03;;;;;;;;;0.00;0.00;;;;;12.46;100.00;101661.50;5085603;27;45384;-79
2023/01/02 09:16:29;;;;;;;;;2.00;0.00;;;;;12.46;100.00;101643.28;5103950;27;45602;-79
2023/01/02 09:18:56;;;;;;;;;0.00;0.00;;;;;12.58;100.00;101652.22;5085739;27;46653;-80
2023/01/02 09:21:21;;;;;;;;;0.00;0.00;;;;;12.45;100.00;101640.69;5104890;27;45332;-80
2023/01/02 09:23:46;;;;;;;;;1.00;0.00;;;;;12.58;100.00;101646.75;5086290;27;45855;-81
2023/01/02 09:26:13;;;;;;;;;0.00;0.00;;;;;12.39;100.00;101623.03;5102407;27;45587;-79
2023/01/02 09:28:38;;;;;;;;;0.00;0.00;;;;;12.45;100.00;101636.13;5085520;27;47283;-79
2023/01/02 09:31:09;;;;;;;;;0.00;0.00;;;;;12.47;100.00;101639.56;5103381;27;45322;-80
2023/01/02 09:33:35;;;;;;;;;0.67;0.67;;;;;12.37;100.00;101633.22;5086140;27;45397;-80
2023/01/02 09:36:05;;;;;;;;;1.00;1.00;;;;;12.49;100.00;101637.53;5104923;27;45551;-79
2023/01/02 09:38:31;;;;;;;;;1.00;1.00;;;;;12.58;100.00;101682.19;5085165;27;46893;-81
2023/01/02 09:40:59;;;;;;;;;1.33;0.00;;;;;12.55;100.00;101687.09;5068739;27;45660;-80
2023/01/02 09:43:57;;;;;;;;;0.00;0.00;;;;;12.59;100.00;101691.25;5076400;28;45511;-79
2023/01/02 09:46:39;;;;;;;;;0.33;0.00;;;;;12.53;100.00;101680.91;5061374;27;45319;-80
2023/01/02 09:49:05;;;;;;;;;0.00;0.00;;;;;12.49;100.00;101675.72;5096641;27;45611;-79
2023/01/02 09:51:32;;;;;;;;;0.00;0.00;;;;;12.56;100.00;101686.09;5082224;28;45232;-80
2023/01/02 09:53:58;;;;;;;;;0.00;0.00;;;;;12.54;100.00;101688.06;5098745;27;45535;-81
2023/01/02 09:56:31;;;;;;;;;1.00;1.00;;;;;12.53;100.00;101698.13;5095918;27;45321;-80
2023/01/02 09:59:13;;;;;;;;;0.00;0.00;;;;;12.60;100.00;101721.09;5099007;27;45635;-80
2023/01/02 10:01:58;;;;;;;;;2.00;1.00;;;;;12.58;100.00;101733.13;5081534;27;45297;-80
2023/01/02 10:04:29;;;;;;;;;0.67;0.67;;;;;12.56;100.00;101736.03;5081565;28;45346;-79
2023/01/02 10:07:19;;;;;;;;;1.00;0.00;;;;;12.48;100.00;101733.97;5096942;27;45257;-77
2023/01/02 10:10:12;;;;;;;;;1.00;1.00;;;;;12.43;100.00;101741.69;5089544;27;46897;-79
2023/01/02 10:12:55;;;;;;;;;1.00;1.00;;;;;12.30;100.00;101732.00;5079862;27;45422;-79
2023/01/02 10:15:25;;;;;;;;;0.00;0.00;;;;;12.39;100.00;101737.50;5088904;27;45571;-78
2023/01/02 10:17:57;;;;;;;;;2.00;0.67;;;;;12.41;100.00;101734.66;5087874;27;45241;-80
2023/01/02 10:20:45;;;;;;;;;0.67;0.67;;;;;12.41;100.00;101712.84;5079187;27;46200;-81
2023/01/02 10:23:26;;;;;;;;;0.00;0.00;;;;;12.52;100.00;101696.38;5078911;27;45351;-83
2023/01/02 10:25:58;;;;;;;;;0.67;0.00;;;;;12.64;100.00;101700.72;5091311;27;45383;-81
2023/01/02 10:28:29;;;;;;;;;1.00;0.00;;;;;12.73;100.00;101710.81;5094401;27;45494;-82
2023/01/02 10:31:03;;;;;;;;;0.67;0.67;;;;;12.83;100.00;101713.56;5079023;27;47978;-83
2023/01/02 10:33:42;;;;;;;;;1.00;1.00;;;;;12.62;100.00;101710.06;5079635;27;46378;-82
2023/01/02 10:36:19;;;;;;;;;1.00;1.00;;;;;12.63;100.00;101709.94;5095577;27;45418;-80
2023/01/02 10:38:44;;;;;;;;;2.00;2.00;;;;;12.62;100.00;101704.59;5098171;27;45298;-82
2023/01/02 10:41:10;;;;;;;;;0.00;0.00;;;;;12.76;100.00;101734.22;5100206;27;45987;-81
2023/01/02 10:43:35;;;;;;;;;1.00;1.00;;;;;12.83;100.00;101738.09;5103286;27;45718;-82
2023/01/02 10:46:02;;;;;;;;;1.33;1.33;;;;;12.77;100.00;101728.63;5076550;27;45479;-80
2023/01/02 10:48:32;;;;;;;;;0.33;0.33;;;;;12.84;100.00;101739.84;5082583;27;45616;-81
2023/01/02 10:51:02;;;;;;;;;2.33;1.00;;;;;12.82;100.00;101733.66;5084119;27;47079;-80
2023/01/02 10:53:33;;;;;;;;;1.00;1.00;;;;;13.00;100.00;101751.09;5098565;27;45409;-82
2023/01/02 10:56:18;;;;;;;;;1.00;1.00;;;;;13.11;100.00;101752.81;5102072;27;44752;-82
2023/01/02 10:58:46;;;;;;;;;1.33;1.00;;;;;13.12;100.00;101749.09;5078662;27;45436;-83
2023/01/02 11:01:17;;;;;;;;;10.33;8.00;;;;;13.18;100.00;101763.06;5088076;27;46501;-82
2023/01/02 11:03:46;;;;;;;;;2.67;1.00;;;;;13.23;100.00;101773.56;5082768;27;45466;-82
2023/01/02 11:06:26;;;;;;;;;1.33;0.67;;;;;13.03;100.00;101767.16;5101589;27;45337;-81
2023/01/02 11:09:14;;;;;;;;;2.33;2.00;;;;;13.00;100.00;101766.59;5101982;27;45451;-81
2023/01/02 11:11:51;;;;;;;;;2.00;2.00;;;;;13.15;100.00;101766.06;5080759;27;47215;-81
2023/01/02 11:14:20;;;;;;;;;2.00;2.00;;;;;13.08;100.00;101766.72;5086010;27;45590;-83
2023/01/02 11:16:46;;;;;;;;;4.00;2.67;;;;;12.99;100.00;101773.91;5103549;27;45403;-84
2023/01/02 11:19:19;;;;;;;;;2.67;2.67;;;;;13.01;100.00;101773.75;5085712;27;45634;-82
2023/01/02 11:21:45;;;;;;;;;1.00;1.00;;;;;13.17;100.00;101779.56;5100792;27;45880;-80
2023/01/02 11:24:15;;;;;;;;;2.00;2.00;;;;;13.13;100.00;101787.19;5084878;27;46010;-83
2023/01/02 11:26:43;;;;;;;;;2.00;2.00;;;;;13.24;100.00;101788.94;5104170;27;45485;-82
2023/01/02 11:29:33;;;;;;;;;1.67;1.00;;;;;13.31;100.00;101786.50;5099806;27;45687;-83
2023/01/02 11:32:03;;;;;;;;;2.33;1.00;;;;;13.49;100.00;101768.44;5101025;27;47580;-82